createdAt,value
2023-01-17T00:02:16.608Z,3.80
2023-01-17T00:05:03.906Z,3.75
2023-01-17T00:07:51.214Z,3.67
2023-01-17T00:10:22.070Z,3.60
2023-01-17T00:12:55.627Z,3.57
2023-01-17T00:15:24.289Z,3.54
2023-01-17T00:17:53.850Z,3.54
2023-01-17T00:20:46.074Z,3.54
2023-01-17T00:23:38.820Z,3.56
2023-01-17T00:26:12.025Z,3.59
2023-01-17T00:28:42.881Z,3.63
2023-01-17T00:31:12.375Z,3.66
2023-01-17T00:33:40.377Z,3.67
2023-01-17T00:36:09.161Z,3.70
2023-01-17T00:38:39.190Z,3.72
2023-01-17T00:41:10.072Z,3.75
2023-01-17T00:43:56.700Z,3.78
2023-01-17T00:46:43.437Z,3.83
2023-01-17T00:49:30.208Z,3.88
2023-01-17T00:52:16.668Z,3.91
2023-01-17T00:55:03.343Z,3.93
2023-01-17T00:57:49.649Z,3.96
2023-01-17T01:00:37.711Z,3.95
2023-01-17T01:03:29.434Z,3.95
2023-01-17T01:06:16.245Z,3.98
2023-01-17T01:09:03.165Z,4.02
2023-01-17T01:11:49.437Z,4.07
2023-01-17T01:14:35.993Z,4.12
2023-01-17T01:17:23.187Z,4.15
2023-01-17T01:20:09.701Z,4.17
2023-01-17T01:22:56.113Z,4.15
2023-01-17T01:25:42.587Z,4.15
2023-01-17T01:28:31.192Z,4.16
2023-01-17T01:31:18.971Z,4.18
2023-01-17T01:33:47.099Z,4.22
2023-01-17T01:36:15.590Z,4.26
2023-01-17T01:38:43.495Z,4.32
2023-01-17T01:41:11.856Z,4.37
2023-01-17T01:43:45.017Z,4.41
2023-01-17T01:46:25.760Z,4.45
2023-01-17T01:49:02.288Z,4.50
2023-01-17T01:51:35.367Z,4.54
2023-01-17T01:54:18.236Z,4.57
2023-01-17T01:56:48.317Z,4.62
2023-01-17T01:59:20.365Z,4.67
2023-01-17T02:01:51.800Z,4.73
2023-01-17T02:04:22.229Z,4.79
2023-01-17T02:06:56.331Z,4.84
2023-01-17T02:09:24.464Z,4.84
2023-01-17T02:11:52.803Z,4.85
2023-01-17T02:14:22.424Z,4.85
2023-01-17T02:16:58.147Z,4.84
2023-01-17T02:19:44.856Z,4.83
2023-01-17T02:22:34.955Z,4.81
2023-01-17T02:25:32.066Z,4.78
2023-01-17T02:28:19.899Z,4.70
2023-01-17T02:30:56.372Z,4.64
2023-01-17T02:33:33.733Z,4.57
2023-01-17T02:36:22.481Z,4.51
2023-01-17T02:39:02.834Z,4.45
2023-01-17T02:41:35.730Z,4.38
2023-01-17T02:44:04.273Z,4.32
2023-01-17T02:46:32.167Z,4.27
2023-01-17T02:49:00.669Z,4.22
2023-01-17T02:51:50.034Z,4.18
2023-01-17T02:54:36.185Z,4.13
2023-01-17T02:57:23.553Z,4.08
2023-01-17T03:00:00.606Z,4.04
2023-01-17T03:02:51.841Z,4.00
2023-01-17T03:05:44.565Z,3.97
2023-01-17T03:08:13.396Z,3.96
2023-01-17T03:10:42.562Z,3.95
2023-01-17T03:13:10.463Z,3.95
2023-01-17T03:15:40.113Z,3.93
2023-01-17T03:18:15.028Z,3.91
2023-01-17T03:20:43.180Z,3.88
2023-01-17T03:23:11.099Z,3.84
2023-01-17T03:25:38.985Z,3.79
2023-01-17T03:28:06.993Z,3.75
2023-01-17T03:30:34.963Z,3.72
2023-01-17T03:33:02.941Z,3.68
2023-01-17T03:35:30.960Z,3.65
2023-01-17T03:37:58.927Z,3.64
2023-01-17T03:40:27.089Z,3.62
2023-01-17T03:42:55.079Z,3.60
2023-01-17T03:45:23.024Z,3.59
2023-01-17T03:47:50.974Z,3.57
2023-01-17T03:50:18.869Z,3.57
2023-01-17T03:52:46.776Z,3.58
2023-01-17T03:55:14.801Z,3.58
2023-01-17T03:57:42.640Z,3.58
2023-01-17T04:00:11.271Z,3.57
2023-01-17T04:02:39.214Z,3.57
2023-01-17T04:05:08.227Z,3.57
2023-01-17T04:07:36.098Z,3.58
2023-01-17T04:10:04.589Z,3.59
2023-01-17T04:12:32.528Z,3.58
2023-01-17T04:15:00.442Z,3.59
2023-01-17T04:17:28.434Z,3.59
2023-01-17T04:19:56.359Z,3.60
2023-01-17T04:22:24.355Z,3.61
2023-01-17T04:24:52.304Z,3.63
2023-01-17T04:27:20.222Z,3.66
2023-01-17T04:29:48.095Z,3.67
2023-01-17T04:32:16.025Z,3.69
2023-01-17T04:34:44.019Z,3.69
2023-01-17T04:37:11.967Z,3.68
2023-01-17T04:39:40.050Z,3.70
2023-01-17T04:42:07.905Z,3.69
2023-01-17T04:44:35.807Z,3.67
2023-01-17T04:47:03.843Z,3.64
2023-01-17T04:49:31.761Z,3.63
2023-01-17T04:51:59.811Z,3.62
2023-01-17T04:54:27.729Z,3.61
2023-01-17T04:56:55.624Z,3.59
2023-01-17T04:59:23.555Z,3.58
2023-01-17T05:01:51.545Z,3.59
2023-01-17T05:04:19.573Z,3.59
2023-01-17T05:06:47.478Z,3.59
2023-01-17T05:09:15.333Z,3.59
2023-01-17T05:11:43.219Z,3.60
2023-01-17T05:14:11.304Z,3.63
2023-01-17T05:16:39.193Z,3.67
2023-01-17T05:19:07.064Z,3.69
2023-01-17T05:21:35.153Z,3.71
2023-01-17T05:24:03.580Z,3.73
2023-01-17T05:26:31.521Z,3.73
2023-01-17T05:28:59.382Z,3.74
2023-01-17T05:31:27.323Z,3.75
2023-01-17T05:33:55.263Z,3.77
2023-01-17T05:36:23.199Z,3.79
2023-01-17T05:38:51.074Z,3.83
2023-01-17T05:41:19.034Z,3.85
2023-01-17T05:43:46.939Z,3.86
2023-01-17T05:46:16.210Z,3.86
2023-01-17T05:48:44.174Z,3.86
2023-01-17T05:51:12.147Z,3.86
2023-01-17T05:53:40.027Z,3.86
2023-01-17T05:56:07.994Z,3.86
2023-01-17T05:58:35.907Z,3.87
2023-01-17T06:01:03.908Z,3.88
2023-01-17T06:03:32.006Z,3.89
2023-01-17T06:05:59.888Z,3.90
2023-01-17T06:08:27.880Z,3.90
2023-01-17T06:10:58.820Z,3.89
2023-01-17T06:13:26.741Z,3.90
2023-01-17T06:15:57.656Z,3.91
2023-01-17T06:18:25.806Z,3.92
2023-01-17T06:20:55.307Z,3.93
2023-01-17T06:23:24.523Z,3.93
2023-01-17T06:25:52.576Z,3.91
2023-01-17T06:28:22.734Z,3.90
2023-01-17T06:30:50.668Z,3.89
2023-01-17T06:33:18.962Z,3.90
2023-01-17T06:35:49.092Z,3.91
2023-01-17T06:38:17.725Z,3.91
2023-01-17T06:40:45.840Z,3.91
2023-01-17T06:43:13.865Z,3.89
2023-01-17T06:45:41.772Z,3.89
2023-01-17T06:48:09.790Z,3.88
2023-01-17T06:50:38.171Z,3.88
2023-01-17T06:53:07.234Z,3.87
2023-01-17T06:55:37.248Z,3.86
2023-01-17T06:58:05.203Z,3.85
2023-01-17T07:00:35.230Z,3.84
2023-01-17T07:03:03.407Z,3.83
2023-01-17T07:05:31.369Z,3.81
2023-01-17T07:07:59.355Z,3.79
2023-01-17T07:10:27.457Z,3.77
2023-01-17T07:13:00.737Z,3.77
2023-01-17T07:15:28.696Z,3.78
2023-01-17T07:17:56.546Z,3.78
2023-01-17T07:20:24.434Z,3.77
2023-01-17T07:22:52.381Z,3.77
2023-01-17T07:25:20.327Z,3.78
2023-01-17T07:27:48.600Z,3.79
2023-01-17T07:30:16.878Z,3.82
2023-01-17T07:32:44.759Z,3.84
2023-01-17T07:35:12.664Z,3.85
2023-01-17T07:37:40.663Z,3.87
2023-01-17T07:40:09.498Z,3.90
2023-01-17T07:42:37.566Z,3.93
2023-01-17T07:45:06.256Z,3.98
2023-01-17T07:47:34.171Z,4.02
2023-01-17T07:50:02.939Z,4.07
2023-01-17T07:52:31.382Z,4.13
2023-01-17T07:54:59.403Z,4.18
2023-01-17T07:57:27.380Z,4.24
2023-01-17T07:59:55.298Z,4.30
2023-01-17T08:02:23.736Z,4.35
2023-01-17T08:04:51.747Z,4.40
2023-01-17T08:07:19.641Z,4.47
2023-01-17T08:09:49.885Z,4.53
2023-01-17T08:12:18.109Z,4.60
2023-01-17T08:14:46.192Z,4.71
2023-01-17T08:17:16.403Z,4.87
2023-01-17T08:19:45.027Z,5.01
2023-01-17T08:22:13.014Z,5.12
2023-01-17T08:24:42.273Z,5.23
2023-01-17T08:27:10.426Z,5.34
2023-01-17T08:29:42.167Z,5.44
2023-01-17T08:32:10.079Z,5.56
2023-01-17T08:34:38.087Z,5.65
2023-01-17T08:37:06.100Z,5.73
2023-01-17T08:39:34.018Z,5.81
2023-01-17T08:42:01.987Z,5.91
2023-01-17T08:44:29.969Z,6.00
2023-01-17T08:46:57.967Z,6.09
2023-01-17T08:49:25.888Z,6.17
2023-01-17T08:51:53.929Z,6.26
2023-01-17T08:54:22.954Z,6.32
2023-01-17T08:56:52.854Z,6.43
2023-01-17T08:59:22.275Z,6.66
2023-01-17T09:01:52.529Z,6.84
2023-01-17T09:04:20.839Z,6.93
2023-01-17T09:06:48.847Z,7.00
2023-01-17T09:09:17.526Z,7.05
2023-01-17T09:11:45.536Z,7.11
2023-01-17T09:14:13.993Z,7.17
2023-01-17T09:16:41.867Z,7.23
2023-01-17T09:19:10.264Z,7.32
2023-01-17T09:21:38.159Z,7.43
2023-01-17T09:24:06.382Z,7.47
2023-01-17T09:26:35.621Z,7.50
2023-01-17T09:29:04.075Z,7.53
2023-01-17T09:31:32.109Z,7.51
2023-01-17T09:34:00.156Z,7.51
2023-01-17T09:36:28.984Z,7.50
2023-01-17T09:38:58.697Z,7.49
2023-01-17T09:41:30.210Z,7.48
2023-01-17T09:44:14.807Z,7.48
2023-01-17T09:46:46.263Z,7.53
2023-01-17T09:49:39.680Z,7.55
2023-01-17T09:52:11.922Z,7.57
2023-01-17T09:54:41.860Z,7.64
2023-01-17T09:57:16.059Z,7.74
2023-01-17T10:00:31.149Z,7.90
2023-01-17T10:03:16.437Z,7.87
2023-01-17T10:05:58.428Z,7.83
2023-01-17T10:08:34.119Z,7.69
2023-01-17T10:11:21.351Z,7.66
2023-01-17T10:14:08.313Z,7.67
2023-01-17T10:16:53.261Z,7.67
2023-01-17T10:19:28.486Z,7.63
2023-01-17T10:22:13.719Z,7.61
2023-01-17T10:25:17.806Z,7.64
2023-01-17T10:27:59.479Z,7.66
2023-01-17T10:30:32.738Z,7.67
2023-01-17T10:33:04.223Z,7.67
2023-01-17T10:35:37.438Z,7.67
2023-01-17T10:38:11.239Z,7.67
2023-01-17T10:40:40.606Z,7.70
2023-01-17T10:43:30.189Z,7.73
2023-01-17T10:45:57.307Z,7.75
2023-01-17T10:48:43.657Z,7.77
2023-01-17T10:51:43.317Z,7.80
2023-01-17T10:54:36.305Z,7.78
2023-01-17T10:57:03.246Z,7.77
2023-01-17T10:59:36.490Z,7.75
2023-01-17T11:02:14.657Z,7.68
2023-01-17T11:04:41.851Z,7.59
2023-01-17T11:07:15.934Z,7.55
2023-01-17T11:09:47.225Z,7.52
2023-01-17T11:12:20.118Z,7.47
2023-01-17T11:15:01.765Z,7.42
2023-01-17T11:17:29.588Z,7.32
2023-01-17T11:20:13.365Z,7.18
2023-01-17T11:22:45.538Z,7.06
2023-01-17T11:25:23.725Z,7.00
2023-01-17T11:28:04.437Z,6.95
2023-01-17T11:30:31.106Z,6.90
2023-01-17T11:33:05.487Z,6.83
2023-01-17T11:35:37.649Z,6.79
2023-01-17T11:38:20.945Z,6.80
2023-01-17T11:40:49.340Z,6.84
2023-01-17T11:43:20.848Z,6.91
2023-01-17T11:46:18.334Z,7.00
2023-01-17T11:48:56.446Z,7.11
2023-01-17T11:51:38.297Z,7.20
2023-01-17T11:54:29.511Z,7.29
2023-01-17T11:57:01.552Z,7.40
2023-01-17T11:59:35.267Z,7.51
2023-01-17T12:02:21.083Z,7.59
2023-01-17T12:04:50.771Z,7.65
2023-01-17T12:07:32.056Z,7.71
2023-01-17T12:10:08.624Z,7.78
2023-01-17T12:13:03.251Z,7.84
2023-01-17T12:15:44.936Z,7.88
2023-01-17T12:18:23.976Z,7.95
2023-01-17T12:20:56.323Z,8.07
2023-01-17T12:23:35.363Z,8.21
2023-01-17T12:26:31.195Z,8.38
2023-01-17T12:29:30.089Z,8.51
2023-01-17T12:32:21.121Z,8.63
2023-01-17T12:35:05.360Z,8.72
2023-01-17T12:37:38.307Z,8.76
2023-01-17T12:40:36.262Z,8.79
2023-01-17T12:43:14.702Z,8.80
2023-01-17T12:45:46.737Z,8.80
2023-01-17T12:48:17.797Z,8.83
2023-01-17T12:50:53.381Z,8.87
2023-01-17T12:53:35.454Z,8.87
2023-01-17T12:56:24.017Z,8.83
2023-01-17T12:58:55.917Z,8.78
2023-01-17T13:01:31.096Z,8.72
2023-01-17T13:04:10.406Z,8.69
2023-01-17T13:07:00.181Z,8.65
2023-01-17T13:09:34.367Z,8.61
2023-01-17T13:12:05.465Z,8.56
2023-01-17T13:14:32.370Z,8.50
2023-01-17T13:17:08.387Z,8.50
2023-01-17T13:19:47.696Z,8.50
2023-01-17T13:22:16.869Z,8.45
2023-01-17T13:24:43.446Z,8.36
2023-01-17T13:27:21.903Z,8.33
2023-01-17T13:29:59.464Z,8.37
2023-01-17T13:32:49.507Z,8.38
2023-01-17T13:35:44.291Z,8.38
2023-01-17T13:38:29.269Z,8.38
2023-01-17T13:41:36.189Z,8.35
2023-01-17T13:44:21.010Z,8.32
2023-01-17T13:46:54.692Z,8.29
2023-01-17T13:49:30.955Z,8.26
2023-01-17T13:52:03.678Z,8.22
2023-01-17T13:54:32.184Z,8.18
2023-01-17T13:57:32.246Z,8.12
2023-01-17T14:00:35.062Z,8.06
2023-01-17T14:03:01.871Z,7.95
2023-01-17T14:05:37.565Z,7.84
2023-01-17T14:08:12.308Z,7.78
2023-01-17T14:10:46.677Z,7.72
2023-01-17T14:13:35.008Z,7.64
2023-01-17T14:16:07.009Z,7.57
2023-01-17T14:18:41.184Z,7.50
2023-01-17T14:21:28.255Z,7.41
2023-01-17T14:23:59.887Z,7.28
2023-01-17T14:26:33.612Z,7.14
2023-01-17T14:29:20.067Z,7.00
2023-01-17T14:31:53.526Z,6.87
2023-01-17T14:34:21.414Z,6.77
2023-01-17T14:36:48.271Z,6.65
2023-01-17T14:39:21.871Z,6.57
2023-01-17T14:41:48.597Z,6.46
2023-01-17T14:44:15.292Z,6.33
2023-01-17T14:46:47.826Z,6.22
2023-01-17T14:49:24.724Z,6.11
2023-01-17T14:51:59.395Z,5.98
2023-01-17T14:54:25.951Z,5.87
2023-01-17T14:57:13.114Z,5.77
2023-01-17T14:59:39.628Z,5.67
2023-01-17T15:02:15.690Z,5.56
2023-01-17T15:04:42.485Z,5.48
2023-01-17T15:07:15.534Z,5.41
2023-01-17T15:09:43.906Z,5.33
2023-01-17T15:12:13.789Z,5.24
2023-01-17T15:14:43.910Z,5.16
2023-01-17T15:17:18.317Z,5.05
2023-01-17T15:19:48.822Z,4.91
2023-01-17T15:22:18.102Z,4.78
2023-01-17T15:24:46.255Z,4.66
2023-01-17T15:27:15.599Z,4.57
2023-01-17T15:29:44.638Z,4.49
2023-01-17T15:32:21.930Z,4.43
2023-01-17T15:34:50.273Z,4.35
2023-01-17T15:37:26.839Z,4.27
2023-01-17T15:40:02.881Z,4.19
2023-01-17T15:42:32.716Z,4.10
2023-01-17T15:45:04.020Z,4.02
2023-01-17T15:47:37.972Z,3.94
2023-01-17T15:50:39.006Z,3.85
2023-01-17T15:53:12.586Z,3.75
2023-01-17T15:55:39.625Z,3.68
2023-01-17T15:58:24.497Z,3.62
2023-01-17T16:00:51.121Z,3.55
2023-01-17T16:03:22.715Z,3.47
2023-01-17T16:05:51.623Z,3.41
2023-01-17T16:08:27.463Z,3.35
2023-01-17T16:10:57.856Z,3.30
2023-01-17T16:13:24.434Z,3.23
2023-01-17T16:15:51.038Z,3.16
2023-01-17T16:18:23.304Z,3.10
2023-01-17T16:20:59.332Z,3.02
2023-01-17T16:23:27.506Z,2.87
2023-01-17T16:25:54.391Z,2.77
2023-01-17T16:28:20.957Z,2.70
2023-01-17T16:30:48.203Z,2.65
2023-01-17T16:33:15.146Z,2.60
2023-01-17T16:35:42.383Z,2.54
2023-01-17T16:38:19.055Z,2.50
2023-01-17T16:40:46.856Z,2.44
2023-01-17T16:43:15.119Z,2.39
2023-01-17T16:45:44.813Z,2.35
2023-01-17T16:48:12.293Z,2.31
2023-01-17T16:50:47.495Z,2.27
2023-01-17T16:53:14.659Z,2.22
2023-01-17T16:55:42.248Z,2.18
2023-01-17T16:58:09.050Z,2.11
2023-01-17T17:00:35.908Z,2.03
2023-01-17T17:03:02.549Z,1.96
2023-01-17T17:05:30.029Z,1.92
2023-01-17T17:07:57.115Z,1.88
2023-01-17T17:10:24.586Z,1.87
2023-01-17T17:12:51.452Z,1.84
2023-01-17T17:15:18.230Z,1.79
2023-01-17T17:17:44.828Z,1.75
2023-01-17T17:20:14.002Z,1.72
2023-01-17T17:22:43.306Z,1.69
2023-01-17T17:25:11.301Z,1.61
2023-01-17T17:27:38.197Z,1.51
2023-01-17T17:30:05.642Z,1.43
2023-01-17T17:32:32.260Z,1.41
2023-01-17T17:34:59.356Z,1.37
2023-01-17T17:37:28.346Z,1.32
2023-01-17T17:39:56.166Z,1.28
2023-01-17T17:42:22.839Z,1.21
2023-01-17T17:44:49.468Z,1.18
2023-01-17T17:47:16.061Z,1.18
2023-01-17T17:49:42.826Z,1.18
2023-01-17T17:52:10.091Z,1.20
2023-01-17T17:54:36.617Z,1.19
2023-01-17T17:57:03.321Z,1.17
2023-01-17T17:59:30.553Z,1.15
2023-01-17T18:01:59.028Z,1.13
2023-01-17T18:04:25.652Z,1.11
2023-01-17T18:06:56.202Z,1.09
2023-01-17T18:09:23.105Z,1.06
2023-01-17T18:11:49.722Z,1.03
2023-01-17T18:14:20.105Z,0.98
2023-01-17T18:16:47.200Z,0.94
2023-01-17T18:19:18.581Z,0.88
2023-01-17T18:21:45.630Z,0.84
2023-01-17T18:24:14.353Z,0.82
2023-01-17T18:26:43.546Z,0.81
2023-01-17T18:29:14.110Z,0.80
2023-01-17T18:31:42.524Z,0.79
2023-01-17T18:34:20.452Z,0.76
2023-01-17T18:36:47.375Z,0.73
2023-01-17T18:39:23.854Z,0.71
2023-01-17T18:41:50.787Z,0.69
2023-01-17T18:44:21.628Z,0.67
2023-01-17T18:46:50.121Z,0.63
2023-01-17T18:49:18.440Z,0.60
2023-01-17T18:51:49.800Z,0.59
2023-01-17T18:54:17.158Z,0.56
2023-01-17T18:56:43.965Z,0.54
2023-01-17T18:59:17.454Z,0.52
2023-01-17T19:01:44.165Z,0.49
2023-01-17T19:04:12.896Z,0.49
2023-01-17T19:06:41.860Z,0.46
2023-01-17T19:09:10.849Z,0.41
2023-01-17T19:11:37.503Z,0.35
2023-01-17T19:14:05.083Z,0.34
2023-01-17T19:16:35.301Z,0.31
2023-01-17T19:19:06.229Z,0.31
2023-01-17T19:21:33.283Z,0.31
2023-01-17T19:24:00.547Z,0.31
2023-01-17T19:26:27.801Z,0.30
2023-01-17T19:28:57.960Z,0.27
2023-01-17T19:31:26.982Z,0.25
2023-01-17T19:33:56.680Z,0.21
2023-01-17T19:36:42.031Z,0.19
2023-01-17T19:39:09.184Z,0.18
2023-01-17T19:41:40.398Z,0.17
2023-01-17T19:44:09.188Z,0.17
2023-01-17T19:46:36.439Z,0.16
2023-01-17T19:49:05.586Z,0.16
2023-01-17T19:51:32.475Z,0.15
2023-01-17T19:54:03.365Z,0.13
2023-01-17T19:56:29.940Z,0.10
2023-01-17T19:59:00.017Z,0.05
2023-01-17T20:01:29.545Z,0.00
2023-01-17T20:03:58.160Z,-0.04
2023-01-17T20:06:30.961Z,-0.04
2023-01-17T20:08:57.807Z,-0.03
2023-01-17T20:11:25.895Z,-0.01
2023-01-17T20:13:55.113Z,-0.02
2023-01-17T20:16:23.318Z,-0.03
2023-01-17T20:18:49.930Z,-0.04
2023-01-17T20:21:19.323Z,-0.05
2023-01-17T20:23:47.029Z,-0.05
2023-01-17T20:26:16.218Z,-0.04
2023-01-17T20:28:45.347Z,-0.02
2023-01-17T20:31:14.724Z,-0.02
2023-01-17T20:33:43.416Z,0.01
2023-01-17T20:36:14.768Z,0.02
2023-01-17T20:38:43.208Z,0.00
2023-01-17T20:41:10.343Z,0.00
2023-01-17T20:43:37.185Z,0.02
2023-01-17T20:46:05.163Z,0.04
2023-01-17T20:48:32.091Z,0.06
2023-01-17T20:51:05.049Z,0.11
2023-01-17T20:53:34.287Z,0.13
2023-01-17T20:56:01.084Z,0.12
2023-01-17T20:58:28.220Z,0.14
2023-01-17T21:00:55.391Z,0.13
2023-01-17T21:03:23.454Z,0.14
2023-01-17T21:05:50.993Z,0.17
2023-01-17T21:08:18.689Z,0.18
2023-01-17T21:10:47.725Z,0.21
2023-01-17T21:13:14.952Z,0.23
2023-01-17T21:15:43.313Z,0.23
2023-01-17T21:18:09.905Z,0.25
2023-01-17T21:20:36.462Z,0.24
2023-01-17T21:23:03.009Z,0.22
2023-01-17T21:25:29.628Z,0.21
2023-01-17T21:27:56.437Z,0.20
2023-01-17T21:30:23.139Z,0.19
2023-01-17T21:32:49.652Z,0.20
2023-01-17T21:35:16.178Z,0.24
2023-01-17T21:37:42.844Z,0.27
2023-01-17T21:40:10.121Z,0.33
2023-01-17T21:42:36.706Z,0.38
2023-01-17T21:45:03.478Z,0.41
2023-01-17T21:47:30.095Z,0.42
2023-01-17T21:49:56.570Z,0.42
2023-01-17T21:52:23.115Z,0.42
2023-01-17T21:55:08.380Z,0.42
2023-01-17T21:57:53.489Z,0.41
2023-01-17T22:00:20.117Z,0.40
2023-01-17T22:02:47.664Z,0.40
2023-01-17T22:05:16.017Z,0.40
2023-01-17T22:08:03.671Z,0.40
2023-01-17T22:10:30.483Z,0.39
2023-01-17T22:12:57.049Z,0.39
2023-01-17T22:15:23.788Z,0.37
2023-01-17T22:17:50.416Z,0.34
2023-01-17T22:20:17.428Z,0.33
2023-01-17T22:22:45.460Z,0.32
2023-01-17T22:25:13.028Z,0.31
2023-01-17T22:27:39.557Z,0.28
2023-01-17T22:30:12.126Z,0.27
2023-01-17T22:32:38.997Z,0.27
2023-01-17T22:35:06.852Z,0.27
2023-01-17T22:37:34.269Z,0.27
2023-01-17T22:40:04.083Z,0.27
2023-01-17T22:42:34.088Z,0.28
2023-01-17T22:45:00.715Z,0.26
2023-01-17T22:47:27.286Z,0.25
2023-01-17T22:49:53.833Z,0.24
2023-01-17T22:52:20.346Z,0.22
2023-01-17T22:54:46.902Z,0.21
2023-01-17T22:57:13.437Z,0.16
2023-01-17T22:59:39.967Z,0.12
2023-01-17T23:02:06.549Z,0.10
2023-01-17T23:04:33.094Z,0.10
2023-01-17T23:06:59.920Z,0.08
2023-01-17T23:09:26.444Z,0.06
2023-01-17T23:11:54.481Z,0.05
2023-01-17T23:14:21.005Z,0.02
2023-01-17T23:17:09.467Z,-0.01
2023-01-17T23:19:38.280Z,-0.05
2023-01-17T23:22:19.725Z,-0.10
2023-01-17T23:24:55.556Z,-0.15
2023-01-17T23:27:45.021Z,-0.16
2023-01-17T23:30:11.630Z,-0.15
2023-01-17T23:32:42.212Z,-0.13
2023-01-17T23:35:08.887Z,-0.10
2023-01-17T23:37:54.514Z,-0.07
2023-01-17T23:40:21.448Z,-0.08
2023-01-17T23:43:06.885Z,-0.10
2023-01-17T23:45:35.183Z,-0.10
2023-01-17T23:48:04.803Z,-0.08
2023-01-17T23:50:32.332Z,-0.02
2023-01-17T23:52:59.188Z,0.03
2023-01-17T23:55:25.902Z,0.09
2023-01-17T23:57:53.645Z,0.17
